Time;durP1;ratioP1;P1;durP2;ratioP2;P2;SDS_P1;SDS_P2;PMS_P1;PMS_P2;Temp;Humidity;BMP_temperature;BMP_pressure;BME280_temperature;BME280_humidity;BME280_pressure;Samples;Min_cycle;Max_cycle;Signal;HPM_P1;HPM_P2
2022/05/31 00:02:24;;;;;;;0.10;0.10;;;8.50;99.90;226.50;231333.00;;;;4917250;29;20616;-68
2022/05/31 00:04:54;;;;;;;0.10;0.10;;;8.40;99.90;226.50;231333.00;;;;4917451;29;20195;-68
2022/05/31 00:07:23;;;;;;;0.10;0.10;;;8.40;99.90;226.50;231333.00;;;;4917614;29;20200;-68
2022/05/31 00:09:51;;;;;;;0.10;0.10;;;8.40;99.90;226.50;231333.00;;;;4920578;29;20206;-70
2022/05/31 00:12:20;;;;;;;0.05;0.05;;;8.60;99.90;226.50;231333.00;;;;4919918;29;20230;-69
2022/05/31 00:14:49;;;;;;;0.10;0.10;;;8.60;99.90;226.50;231333.00;;;;4917303;29;20195;-69
2022/05/31 00:17:18;;;;;;;0.10;0.10;;;8.60;99.90;226.50;231333.00;;;;4916940;29;20251;-69
2022/05/31 00:19:46;;;;;;;0.10;0.10;;;8.40;99.90;226.50;231333.00;;;;4916149;29;20667;-69
2022/05/31 00:22:20;;;;;;;0.10;0.10;;;8.50;99.90;226.50;231333.00;;;;4916789;29;20222;-69
2022/05/31 00:24:49;;;;;;;0.08;0.08;;;8.40;99.90;226.50;231333.00;;;;4903819;29;20187;-69
2022/05/31 00:27:22;;;;;;;0.00;0.00;;;7.90;99.90;226.50;231333.00;;;;4898484;29;20207;-69
2022/05/31 00:29:50;;;;;;;0.00;0.00;;;7.70;99.90;226.50;231333.00;;;;4897877;29;20235;-69
2022/05/31 00:32:25;;;;;;;0.00;0.00;;;7.70;99.90;226.50;231333.00;;;;4899829;29;20226;-69
2022/05/31 00:34:57;;;;;;;0.10;0.10;;;7.80;99.90;226.50;231333.00;;;;4916974;29;20191;-69
2022/05/31 00:37:28;;;;;;;0.10;0.10;;;7.80;99.90;226.50;231333.00;;;;4917214;29;20206;-68
2022/05/31 00:39:57;;;;;;;0.00;0.00;;;8.10;99.90;226.50;231333.00;;;;4916034;29;20214;-67
2022/05/31 00:42:25;;;;;;;0.10;0.10;;;8.00;99.90;226.50;231333.00;;;;4911211;29;20286;-68
2022/05/31 00:44:54;;;;;;;0.10;0.10;;;7.90;99.90;226.50;231333.00;;;;4900529;29;20195;-68
2022/05/31 00:47:30;;;;;;;0.00;0.00;;;8.00;99.90;226.50;231333.00;;;;4906712;29;20216;-68
2022/05/31 00:50:04;;;;;;;0.10;0.10;;;7.90;99.90;226.50;231333.00;;;;4894405;29;20239;-68
2022/05/31 00:52:38;;;;;;;0.10;0.10;;;7.80;99.90;226.50;231333.00;;;;4906678;29;20243;-68
2022/05/31 00:55:21;;;;;;;0.10;0.10;;;7.80;99.90;226.50;231333.00;;;;4903409;29;20210;-68
2022/05/31 00:57:58;;;;;;;0.10;0.10;;;7.90;99.90;226.50;231333.00;;;;4917207;29;20195;-67
2022/05/31 01:00:28;;;;;;;0.10;0.10;;;7.90;99.90;226.50;231333.00;;;;4897436;29;20208;-67
2022/05/31 01:02:58;;;;;;;0.10;0.10;;;7.90;99.90;226.50;231333.00;;;;4892292;29;20591;-67
2022/05/31 01:05:27;;;;;;;0.10;0.10;;;7.90;99.90;226.50;231333.00;;;;4916779;29;20214;-67
2022/05/31 01:07:57;;;;;;;0.10;0.10;;;7.90;99.90;226.50;231333.00;;;;4915618;29;20195;-67
2022/05/31 01:10:31;;;;;;;0.10;0.10;;;7.80;99.90;226.50;231333.00;;;;4915013;29;20209;-69
2022/05/31 01:13:20;;;;;;;0.05;0.05;;;7.70;99.90;226.50;231333.00;;;;4916291;29;20338;-67
2022/05/31 01:16:12;;;;;;;0.10;0.10;;;7.70;99.90;226.50;231333.00;;;;4915722;29;20218;-68
2022/05/31 01:19:00;;;;;;;0.10;0.10;;;7.80;99.90;226.50;231333.00;;;;4916006;29;20393;-68
2022/05/31 01:21:49;;;;;;;0.10;0.10;;;7.50;99.90;226.50;231333.00;;;;4916226;29;20249;-68
2022/05/31 01:24:31;;;;;;;0.10;0.10;;;7.40;99.90;226.50;231333.00;;;;4896036;29;20211;-68
2022/05/31 01:27:10;;;;;;;0.10;0.10;;;7.40;99.90;226.50;231333.00;;;;4896967;29;20203;-68
2022/05/31 01:29:41;;;;;;;0.10;0.10;;;7.20;99.90;226.50;231333.00;;;;4910202;29;20627;-68
2022/05/31 01:32:12;;;;;;;0.10;0.10;;;7.10;99.90;226.50;231333.00;;;;4912759;29;20223;-68
2022/05/31 01:34:52;;;;;;;0.00;0.00;;;7.10;99.90;226.50;231333.00;;;;4915962;29;20198;-68
2022/05/31 01:37:34;;;;;;;0.10;0.10;;;7.10;99.90;226.50;231333.00;;;;4915557;29;20198;-68
2022/05/31 01:40:10;;;;;;;0.10;0.10;;;7.00;99.90;226.50;231333.00;;;;4908404;29;20203;-68
2022/05/31 01:42:44;;;;;;;0.10;0.10;;;7.10;99.90;226.50;231333.00;;;;4915441;29;20878;-69
2022/05/31 01:45:19;;;;;;;0.10;0.10;;;7.10;99.90;226.50;231333.00;;;;4915464;29;20270;-69
2022/05/31 01:47:49;;;;;;;0.10;0.10;;;7.20;99.90;226.50;231333.00;;;;4902869;29;20203;-69
2022/05/31 01:50:21;;;;;;;0.05;0.05;;;7.20;99.90;226.50;231333.00;;;;4896295;29;20227;-68
2022/05/31 01:52:53;;;;;;;0.10;0.10;;;7.00;99.90;226.50;231333.00;;;;4889100;29;20223;-68
2022/05/31 01:55:24;;;;;;;0.10;0.10;;;6.90;99.90;226.50;231333.00;;;;4898162;29;20230;-68
2022/05/31 01:57:59;;;;;;;0.00;0.00;;;6.80;99.90;226.50;231333.00;;;;4898094;29;20294;-68
2022/05/31 02:00:29;;;;;;;0.10;0.10;;;6.60;99.90;226.50;231333.00;;;;4898903;29;20206;-68
2022/05/31 02:03:01;;;;;;;0.08;0.08;;;6.60;99.90;226.50;231333.00;;;;4897960;29;20710;-68
2022/05/31 02:05:31;;;;;;;0.10;0.10;;;6.60;99.90;226.50;231333.00;;;;4915552;29;20187;-68
2022/05/31 02:08:04;;;;;;;0.10;0.10;;;6.40;99.90;226.50;231333.00;;;;4914561;29;20505;-68
2022/05/31 02:10:34;;;;;;;0.10;0.10;;;6.40;99.90;226.50;231333.00;;;;4898569;29;20744;-68
2022/05/31 02:13:08;;;;;;;0.10;0.10;;;6.40;99.90;226.50;231333.00;;;;4895998;29;20234;-68
2022/05/31 02:15:48;;;;;;;0.10;0.10;;;6.40;99.90;226.50;231333.00;;;;4886899;29;20226;-68
2022/05/31 02:18:17;;;;;;;0.00;0.00;;;6.40;99.90;226.50;231333.00;;;;4898861;29;20682;-68
2022/05/31 02:21:04;;;;;;;0.10;0.10;;;6.50;99.90;226.50;231333.00;;;;4904414;29;20310;-68
2022/05/31 02:23:34;;;;;;;0.00;0.00;;;6.60;99.90;226.50;231333.00;;;;4891094;29;20219;-68
2022/05/31 02:26:03;;;;;;;0.10;0.10;;;6.70;99.90;226.50;231333.00;;;;4896055;29;20282;-68
2022/05/31 02:28:34;;;;;;;0.10;0.10;;;6.80;99.90;226.50;231333.00;;;;4897667;29;20286;-68
2022/05/31 02:31:03;;;;;;;0.03;0.03;;;6.80;99.90;226.50;231333.00;;;;4910728;29;20568;-68
2022/05/31 02:33:32;;;;;;;0.10;0.10;;;7.00;99.90;226.50;231333.00;;;;4913160;29;20199;-68
2022/05/31 02:36:01;;;;;;;0.10;0.10;;;7.00;99.90;226.50;231333.00;;;;4896164;29;20203;-68
2022/05/31 02:38:30;;;;;;;0.10;0.10;;;6.90;99.90;226.50;231333.00;;;;4887980;29;20211;-68
2022/05/31 02:41:00;;;;;;;0.10;0.10;;;6.80;99.90;226.50;231333.00;;;;4894715;29;20208;-68
2022/05/31 02:43:29;;;;;;;0.10;0.10;;;6.80;99.90;226.50;231333.00;;;;4912923;29;20194;-68
2022/05/31 02:46:03;;;;;;;0.10;0.10;;;6.80;99.90;226.50;231333.00;;;;4904735;29;20267;-68
2022/05/31 02:48:33;;;;;;;0.10;0.10;;;6.80;99.90;226.50;231333.00;;;;4904143;29;20203;-68
2022/05/31 02:51:02;;;;;;;0.10;0.10;;;6.80;99.90;226.50;231333.00;;;;4901181;29;20608;-68
2022/05/31 02:53:31;;;;;;;0.10;0.10;;;6.80;99.90;226.50;231333.00;;;;4901037;29;20198;-68
2022/05/31 02:56:05;;;;;;;0.10;0.10;;;6.70;99.90;226.50;231333.00;;;;4908442;29;20675;-68
2022/05/31 02:59:03;;;;;;;0.10;0.10;;;6.60;99.90;226.50;231333.00;;;;4909005;29;20199;-68
2022/05/31 03:01:52;;;;;;;0.10;0.10;;;6.60;99.90;226.50;231333.00;;;;4917241;29;20223;-68
2022/05/31 03:04:39;;;;;;;0.08;0.08;;;6.60;99.90;226.50;231333.00;;;;4918914;29;20686;-68
2022/05/31 03:07:45;;;;;;;0.10;0.10;;;6.60;99.90;226.50;231333.00;;;;4918285;29;20206;-68
2022/05/31 03:10:19;;;;;;;0.10;0.10;;;6.60;99.90;226.50;231333.00;;;;4901419;29;20254;-68
2022/05/31 03:12:51;;;;;;;0.10;0.10;;;6.50;99.90;226.50;231333.00;;;;4900980;29;20222;-68
2022/05/31 03:15:22;;;;;;;0.10;0.10;;;6.40;99.90;226.50;231333.00;;;;4918463;29;20202;-68
2022/05/31 03:17:58;;;;;;;0.10;0.10;;;6.50;99.90;226.50;231333.00;;;;4900958;29;20210;-68
2022/05/31 03:20:36;;;;;;;0.10;0.10;;;6.50;99.90;226.50;231333.00;;;;4902607;29;20214;-68
2022/05/31 03:23:12;;;;;;;0.10;0.10;;;6.40;99.90;226.50;231333.00;;;;4900603;29;20223;-67
2022/05/31 03:25:45;;;;;;;0.10;0.10;;;6.40;99.90;226.50;231333.00;;;;4897556;29;20212;-67
2022/05/31 03:28:15;;;;;;;0.10;0.10;;;6.40;99.90;226.50;231333.00;;;;4902187;29;20215;-67
2022/05/31 03:30:44;;;;;;;0.10;0.10;;;6.30;99.90;226.50;231333.00;;;;4900986;29;20257;-67
2022/05/31 03:33:14;;;;;;;0.10;0.10;;;6.30;99.90;226.50;231333.00;;;;4917156;29;20606;-68
2022/05/31 03:35:43;;;;;;;0.10;0.10;;;6.30;99.90;226.50;231333.00;;;;4901139;29;20203;-67
2022/05/31 03:38:18;;;;;;;0.10;0.10;;;6.20;99.90;226.50;231333.00;;;;4898229;29;20226;-67
2022/05/31 03:40:57;;;;;;;0.10;0.10;;;6.30;99.90;226.50;231333.00;;;;4897919;29;20215;-67
2022/05/31 03:43:34;;;;;;;0.10;0.10;;;6.30;99.90;226.50;231333.00;;;;4962287;23;20234;-69
2022/05/31 03:46:26;;;;;;;0.10;0.10;;;6.30;99.90;226.50;231333.00;;;;4956089;28;20540;-69
2022/05/31 03:49:18;;;;;;;0.00;0.00;;;6.30;99.90;226.50;231333.00;;;;4935429;29;20199;-68
2022/05/31 03:51:51;;;;;;;0.10;0.10;;;6.30;99.90;226.50;231333.00;;;;4959603;28;20218;-68
2022/05/31 03:54:27;;;;;;;0.10;0.10;;;6.30;99.90;226.50;231333.00;;;;4953301;28;20784;-68
2022/05/31 03:57:22;;;;;;;0.10;0.10;;;6.40;99.90;226.50;231333.00;;;;4956377;28;20198;-69
2022/05/31 03:59:57;;;;;;;0.10;0.10;;;6.40;99.90;226.50;231333.00;;;;4955496;29;20287;-69
2022/05/31 04:02:45;;;;;;;0.10;0.10;;;6.50;99.90;226.50;231333.00;;;;4951220;28;20213;-69
2022/05/31 04:05:15;;;;;;;0.10;0.10;;;6.50;99.90;226.50;231333.00;;;;4954688;29;20221;-71
2022/05/31 04:07:44;;;;;;;0.10;0.10;;;6.40;99.90;226.50;231333.00;;;;4954240;28;20256;-69
2022/05/31 04:10:13;;;;;;;0.10;0.10;;;6.40;99.90;226.50;231333.00;;;;4954025;28;20225;-69
2022/05/31 04:12:43;;;;;;;0.00;0.00;;;6.40;99.90;226.50;231333.00;;;;4953955;29;20214;-68
2022/05/31 04:15:16;;;;;;;0.00;0.00;;;6.30;99.90;226.50;231333.00;;;;4956017;28;20202;-69
2022/05/31 04:17:45;;;;;;;0.00;0.00;;;6.40;99.90;226.50;231333.00;;;;4956125;28;20441;-69
2022/05/31 04:20:14;;;;;;;0.10;0.10;;;6.50;99.90;226.50;231333.00;;;;4955462;28;20205;-69
2022/05/31 04:22:43;;;;;;;0.10;0.10;;;6.40;99.90;226.50;231333.00;;;;4953257;28;20592;-69
2022/05/31 04:25:50;;;;;;;0.10;0.10;;;6.40;99.90;226.50;231333.00;;;;4955891;28;20229;-70
2022/05/31 04:28:38;;;;;;;0.10;0.10;;;6.50;99.90;226.50;231333.00;;;;4954974;28;20202;-69
2022/05/31 04:31:33;;;;;;;0.10;0.10;;;6.50;99.90;226.50;231333.00;;;;4955081;28;20237;-72
2022/05/31 04:34:32;;;;;;;0.10;0.10;;;6.60;99.90;226.50;231333.00;;;;4934779;29;20689;-72
2022/05/31 04:37:00;;;;;;;0.10;0.10;;;6.60;99.90;226.50;231333.00;;;;4936429;29;20682;-72
2022/05/31 04:39:46;;;;;;;0.10;0.10;;;6.60;99.90;226.50;231333.00;;;;4966136;28;20673;-72
2022/05/31 04:42:33;;;;;;;0.00;0.00;;;6.60;99.90;226.50;231333.00;;;;4968305;28;20724;-72
2022/05/31 04:45:02;;;;;;;0.00;0.00;;;6.60;99.90;226.50;231333.00;;;;4967986;28;20190;-72
2022/05/31 04:47:32;;;;;;;0.10;0.10;;;6.80;99.90;226.50;231333.00;;;;4960562;28;20226;-72
2022/05/31 04:50:03;;;;;;;0.10;0.10;;;6.90;99.90;226.50;231333.00;;;;4964427;28;20198;-72
2022/05/31 04:52:36;;;;;;;0.10;0.10;;;6.90;99.90;226.50;231333.00;;;;4967660;28;20674;-71
2022/05/31 04:55:07;;;;;;;0.10;0.10;;;6.90;99.90;226.50;231333.00;;;;4946999;28;20678;-72
2022/05/31 04:57:43;;;;;;;0.10;0.10;;;7.00;99.90;226.50;231333.00;;;;4966115;28;20199;-72
2022/05/31 05:00:14;;;;;;;0.08;0.08;;;7.00;99.90;226.50;231333.00;;;;4967284;28;20206;-69
2022/05/31 05:03:09;;;;;;;0.10;0.10;;;7.20;99.90;226.50;231333.00;;;;4965342;28;20230;-70
2022/05/31 05:05:38;;;;;;;0.10;0.10;;;7.30;99.90;226.50;231333.00;;;;4940980;28;20201;-70
2022/05/31 05:08:14;;;;;;;0.03;0.03;;;7.30;99.90;226.50;231333.00;;;;4953553;28;20201;-69
2022/05/31 05:10:46;;;;;;;0.10;0.10;;;7.40;99.90;226.50;231333.00;;;;4969973;28;20221;-70
2022/05/31 05:13:40;;;;;;;0.00;0.00;;;7.40;99.90;226.50;231333.00;;;;4955087;28;20222;-70
2022/05/31 05:16:44;;;;;;;0.10;0.10;;;7.50;99.90;226.50;231333.00;;;;4945743;29;20193;-70
2022/05/31 05:19:17;;;;;;;0.00;0.00;;;7.70;99.90;226.50;231333.00;;;;4945314;29;20237;-70
2022/05/31 05:21:56;;;;;;;0.10;0.10;;;7.80;99.90;226.50;231333.00;;;;4961786;28;20260;-70
2022/05/31 05:24:25;;;;;;;0.10;0.10;;;7.90;99.90;226.50;231333.00;;;;4967519;28;20200;-70
2022/05/31 05:27:13;;;;;;;0.10;0.10;;;7.90;99.90;226.50;231333.00;;;;4951955;28;20831;-70
2022/05/31 05:32:53;;;;;;;0.10;0.10;;;8.10;99.90;226.50;231333.00;;;;4941183;28;20590;-70
2022/05/31 05:35:32;;;;;;;0.00;0.00;;;8.20;99.90;226.50;231333.00;;;;4934410;29;20218;-70
2022/05/31 05:38:10;;;;;;;0.00;0.00;;;8.30;99.90;226.50;231333.00;;;;4950523;28;20296;-70
2022/05/31 05:41:20;;;;;;;0.10;0.10;;;8.30;99.90;226.50;231333.00;;;;4913729;29;20210;-70
2022/05/31 05:44:08;;;;;;;0.10;0.10;;;8.40;99.90;226.50;231333.00;;;;4913509;29;20681;-70
2022/05/31 05:46:38;;;;;;;0.10;0.10;;;8.50;99.90;226.50;231333.00;;;;4935277;29;20308;-70
2022/05/31 05:49:08;;;;;;;0.10;0.10;;;8.70;99.90;226.50;231333.00;;;;4967565;28;20194;-70
2022/05/31 05:51:38;;;;;;;0.10;0.10;;;8.90;99.90;226.50;231333.00;;;;4952464;28;20235;-70
2022/05/31 05:54:29;;;;;;;0.00;0.00;;;9.10;99.90;226.50;231333.00;;;;4935265;28;20198;-70
2022/05/31 05:57:17;;;;;;;0.10;0.10;;;9.30;99.90;226.50;231333.00;;;;4953480;29;20287;-70
2022/05/31 06:00:17;;;;;;;0.10;0.10;;;9.50;99.90;226.50;231333.00;;;;4917896;28;20211;-70
2022/05/31 06:03:06;;;;;;;0.10;0.10;;;9.70;99.90;226.50;231333.00;;;;4953875;28;20214;-70
2022/05/31 06:06:00;;;;;;;0.10;0.10;;;9.70;99.90;226.50;231333.00;;;;4949452;28;20209;-70
2022/05/31 06:08:38;;;;;;;0.10;0.10;;;9.80;99.90;226.50;231333.00;;;;4953308;28;20197;-70
2022/05/31 06:11:12;;;;;;;0.08;0.08;;;10.00;99.90;226.50;231333.00;;;;4953239;28;20271;-70
2022/05/31 06:13:49;;;;;;;0.10;0.10;;;10.20;99.90;226.50;231333.00;;;;4952473;28;20225;-70
2022/05/31 06:16:22;;;;;;;0.00;0.00;;;10.30;99.90;226.50;231333.00;;;;4951330;28;20204;-70
2022/05/31 06:19:00;;;;;;;0.00;0.00;;;10.30;99.90;226.50;231333.00;;;;4951558;29;20193;-70
2022/05/31 06:21:29;;;;;;;0.00;0.00;;;10.30;99.90;226.50;231333.00;;;;4953244;28;20236;-70
2022/05/31 06:24:08;;;;;;;0.10;0.10;;;10.40;99.90;226.50;231333.00;;;;4951609;28;20286;-70
2022/05/31 06:26:38;;;;;;;0.05;0.05;;;10.50;99.90;226.50;231333.00;;;;4968883;28;20200;-70
2022/05/31 06:29:08;;;;;;;0.10;0.10;;;10.60;99.90;226.50;231333.00;;;;4952682;28;20657;-70
2022/05/31 06:31:37;;;;;;;0.03;0.03;;;10.70;99.90;226.50;231333.00;;;;4952131;28;20284;-70
2022/05/31 06:34:15;;;;;;;0.10;0.10;;;10.80;99.90;226.50;231333.00;;;;4951438;28;20205;-70
2022/05/31 06:37:13;;;;;;;0.10;0.10;;;10.90;99.90;226.50;231333.00;;;;4951675;28;20284;-70
2022/05/31 06:39:47;;;;;;;0.10;0.10;;;11.10;99.90;226.50;231333.00;;;;4961509;28;20228;-70
2022/05/31 06:42:32;;;;;;;0.10;0.10;;;11.20;99.90;226.50;231333.00;;;;4966092;28;20234;-70
2022/05/31 06:45:19;;;;;;;0.10;0.10;;;11.40;99.90;226.50;231333.00;;;;4939886;29;20204;-70
2022/05/31 06:48:07;;;;;;;0.10;0.10;;;11.50;99.90;226.50;231333.00;;;;4952442;28;20216;-70
2022/05/31 06:50:54;;;;;;;0.10;0.10;;;11.80;99.90;226.50;231333.00;;;;4953010;28;20204;-69
2022/05/31 06:56:52;;;;;;;0.10;0.10;;;12.20;99.90;226.50;231333.00;;;;4950930;28;20202;-70
2022/05/31 06:59:27;;;;;;;0.10;0.10;;;12.40;99.90;226.50;231333.00;;;;4949166;29;20201;-70
2022/05/31 07:02:03;;;;;;;0.10;0.10;;;12.50;99.90;226.50;231333.00;;;;4967945;28;20270;-70
2022/05/31 07:04:32;;;;;;;0.10;0.10;;;12.60;99.90;226.50;231333.00;;;;4940462;28;20279;-70
2022/05/31 07:07:02;;;;;;;0.10;0.10;;;12.80;99.90;226.50;231333.00;;;;4933805;28;20249;-70
2022/05/31 07:09:56;;;;;;;0.00;0.00;;;13.20;99.90;226.50;231333.00;;;;4952115;28;20221;-70
2022/05/31 07:13:04;;;;;;;0.10;0.10;;;13.40;99.90;226.50;231333.00;;;;4952159;28;20225;-70
2022/05/31 07:16:11;;;;;;;0.10;0.10;;;13.80;99.90;226.50;231333.00;;;;4940929;28;20574;-69
2022/05/31 07:19:04;;;;;;;0.10;0.10;;;14.40;99.90;226.50;231333.00;;;;4950589;28;20748;-69
2022/05/31 07:21:39;;;;;;;0.10;0.10;;;14.60;99.90;226.50;231333.00;;;;4963719;28;20201;-69
2022/05/31 07:24:08;;;;;;;0.00;0.00;;;14.80;99.90;226.50;231333.00;;;;4943482;29;20202;-69
2022/05/31 07:26:40;;;;;;;0.10;0.10;;;15.00;99.90;226.50;231333.00;;;;4950312;28;20294;-69
2022/05/31 07:29:10;;;;;;;0.00;0.00;;;15.40;99.90;226.50;231333.00;;;;4967766;28;20664;-69
2022/05/31 07:31:41;;;;;;;0.10;0.10;;;15.70;99.90;226.50;231333.00;;;;4939405;29;20269;-69
2022/05/31 07:34:31;;;;;;;0.00;0.00;;;15.90;99.90;226.50;231333.00;;;;4961509;28;20287;-69
2022/05/31 07:37:00;;;;;;;0.00;0.00;;;16.30;99.90;226.50;231333.00;;;;4949304;28;20201;-69
2022/05/31 07:39:29;;;;;;;0.10;0.10;;;16.40;99.90;226.50;231333.00;;;;4947938;29;20195;-69
2022/05/31 07:41:59;;;;;;;0.00;0.00;;;16.50;99.90;226.50;231333.00;;;;4948498;29;20324;-69
2022/05/31 07:44:29;;;;;;;0.00;0.00;;;16.60;99.90;226.50;231333.00;;;;4961759;28;20269;-69
2022/05/31 07:46:59;;;;;;;0.00;0.00;;;16.60;99.90;226.50;231333.00;;;;4953854;28;20205;-69
2022/05/31 07:49:30;;;;;;;0.03;0.03;;;16.70;99.90;226.50;231333.00;;;;4968489;28;20245;-69
2022/05/31 07:52:19;;;;;;;0.00;0.00;;;16.70;99.90;226.50;231333.00;;;;4955422;28;20260;-69
2022/05/31 07:55:08;;;;;;;0.00;0.00;;;16.70;99.90;226.50;231333.00;;;;4954611;28;20572;-69
2022/05/31 08:01:13;;;;;;;0.00;0.00;;;17.00;99.90;226.50;231333.00;;;;4948045;29;20240;-69
2022/05/31 08:03:45;;;;;;;0.00;0.00;;;17.30;99.90;226.50;231333.00;;;;4960101;28;20222;-69
2022/05/31 08:06:17;;;;;;;0.00;0.00;;;17.40;99.90;226.50;231333.00;;;;4957756;28;20194;-69
2022/05/31 08:08:46;;;;;;;0.00;0.00;;;17.60;99.90;226.50;231333.00;;;;4960045;28;20217;-69
2022/05/31 08:11:18;;;;;;;0.00;0.00;;;17.70;99.90;226.50;231333.00;;;;4959103;28;20230;-69
2022/05/31 08:13:47;;;;;;;0.00;0.00;;;17.90;99.90;226.50;231333.00;;;;4958412;28;20222;-69
2022/05/31 08:16:21;;;;;;;0.00;0.00;;;18.00;99.90;226.50;231333.00;;;;4956818;28;20201;-69
2022/05/31 08:18:50;;;;;;;0.00;0.00;;;18.10;99.90;226.50;231333.00;;;;4956448;28;20252;-69
2022/05/31 08:21:27;;;;;;;0.10;0.10;;;18.20;99.90;226.50;231333.00;;;;4959429;28;20194;-69
2022/05/31 08:23:56;;;;;;;0.00;0.00;;;18.20;99.90;226.50;231333.00;;;;4958532;28;20201;-69
2022/05/31 08:26:26;;;;;;;0.00;0.00;;;18.30;99.90;226.50;231333.00;;;;4960023;29;20703;-69
2022/05/31 08:28:55;;;;;;;0.00;0.00;;;18.40;99.90;226.50;231333.00;;;;4959846;28;20190;-70
2022/05/31 08:31:31;;;;;;;0.00;0.00;;;18.50;99.90;226.50;231333.00;;;;4962891;28;20253;-69
2022/05/31 08:34:00;;;;;;;0.00;0.00;;;18.70;99.90;226.50;231333.00;;;;4961270;28;20213;-70
2022/05/31 08:36:29;;;;;;;0.00;0.00;;;18.90;99.90;226.50;231333.00;;;;4959746;29;20189;-69
2022/05/31 08:38:57;;;;;;;0.00;0.00;;;18.90;99.90;226.50;231333.00;;;;4959323;28;20190;-69
2022/05/31 08:41:31;;;;;;;0.00;0.00;;;19.10;99.90;226.50;231333.00;;;;4958614;28;20198;-69
2022/05/31 08:44:11;;;;;;;0.00;0.00;;;19.30;99.90;226.50;231333.00;;;;4959829;28;20301;-69
2022/05/31 08:47:01;;;;;;;0.00;0.00;;;19.40;99.90;226.50;231333.00;;;;4961315;28;20217;-70
2022/05/31 08:53:05;;;;;;;0.00;0.00;;;19.70;98.40;226.50;231333.00;;;;4939888;29;20702;-70
2022/05/31 08:58:45;;;;;;;0.00;0.00;;;20.10;97.90;226.50;231333.00;;;;4963032;28;20197;-70
2022/05/31 09:01:21;;;;;;;0.00;0.00;;;20.10;98.00;226.50;231333.00;;;;4954708;28;20260;-70
2022/05/31 09:04:01;;;;;;;0.00;0.00;;;19.70;96.20;226.50;231333.00;;;;4938428;28;20639;-70
2022/05/31 09:06:44;;;;;;;0.00;0.00;;;19.80;96.50;226.50;231333.00;;;;4934742;29;20709;-70
2022/05/31 09:09:19;;;;;;;0.00;0.00;;;20.00;96.40;226.50;231333.00;;;;4948112;28;20228;-70
2022/05/31 09:12:01;;;;;;;0.00;0.00;;;20.00;93.20;226.50;231333.00;;;;4941660;28;20308;-70
2022/05/31 09:14:47;;;;;;;0.00;0.00;;;20.10;91.90;226.50;231333.00;;;;4947694;29;20207;-69
2022/05/31 09:17:26;;;;;;;0.00;0.00;;;20.30;91.80;226.50;231333.00;;;;4935486;29;20217;-69
2022/05/31 09:20:06;;;;;;;0.00;0.00;;;20.60;90.20;226.50;231333.00;;;;4953420;29;20205;-70
2022/05/31 09:22:43;;;;;;;0.00;0.00;;;20.60;84.30;226.50;231333.00;;;;4954452;28;20708;-70
2022/05/31 09:25:13;;;;;;;0.00;0.00;;;20.60;86.90;226.50;231333.00;;;;4953796;28;20274;-69
2022/05/31 09:27:46;;;;;;;0.00;0.00;;;20.60;85.20;226.50;231333.00;;;;4946784;29;20190;-69
2022/05/31 09:30:26;;;;;;;0.00;0.00;;;20.40;90.60;226.50;231333.00;;;;4949022;29;20566;-70
2022/05/31 09:33:10;;;;;;;0.00;0.00;;;20.40;91.10;226.50;231333.00;;;;4963773;28;20224;-69
2022/05/31 09:35:57;;;;;;;0.00;0.00;;;19.90;92.30;226.50;231333.00;;;;4943954;29;20586;-70
2022/05/31 09:39:10;;;;;;;0.00;0.00;;;19.80;92.60;226.50;231333.00;;;;4951879;28;20285;-70
2022/05/31 09:41:46;;;;;;;0.00;0.00;;;20.00;93.60;226.50;231333.00;;;;4952495;28;20194;-70
2022/05/31 09:44:24;;;;;;;0.00;0.00;;;20.30;93.50;226.50;231333.00;;;;4994124;23;20236;-70
2022/05/31 09:47:03;;;;;;;0.00;0.00;;;20.70;90.60;226.50;231333.00;;;;4978280;28;20204;-71
2022/05/31 09:49:36;;;;;;;0.00;0.00;;;20.80;90.60;226.50;231333.00;;;;4968696;28;20206;-70
2022/05/31 09:52:15;;;;;;;0.00;0.00;;;21.20;88.20;226.50;231333.00;;;;4972014;28;20259;-70
2022/05/31 09:58:36;;;;;;;0.00;0.00;;;21.70;90.00;226.50;231333.00;;;;4907997;29;20207;-70
2022/05/31 10:01:32;;;;;;;0.00;0.00;;;21.90;87.20;226.50;231333.00;;;;4952483;28;20232;-70
2022/05/31 10:04:12;;;;;;;0.00;0.00;;;21.70;86.10;226.50;231333.00;;;;4966707;28;20731;-70
2022/05/31 10:06:55;;;;;;;0.00;0.00;;;21.40;86.40;226.50;231333.00;;;;4954116;28;20213;-70
2022/05/31 10:09:34;;;;;;;0.00;0.00;;;21.40;86.60;226.50;231333.00;;;;4955413;28;20680;-70
2022/05/31 10:12:26;;;;;;;0.00;0.00;;;20.90;84.80;226.50;231333.00;;;;4954646;28;20205;-70
2022/05/31 10:14:57;;;;;;;0.00;0.00;;;20.50;87.50;226.50;231333.00;;;;4967789;28;20222;-69
2022/05/31 10:17:37;;;;;;;0.00;0.00;;;20.80;83.30;226.50;231333.00;;;;4940415;29;20326;-70
2022/05/31 10:20:20;;;;;;;0.00;0.00;;;21.20;80.50;226.50;231333.00;;;;4933771;29;20205;-69
2022/05/31 10:23:00;;;;;;;0.00;0.00;;;21.30;80.00;226.50;231333.00;;;;4942989;28;20576;-68
2022/05/31 10:25:54;;;;;;;0.00;0.00;;;21.20;80.70;226.50;231333.00;;;;4955007;29;20700;-69
2022/05/31 10:28:41;;;;;;;0.00;0.00;;;21.10;80.50;226.50;231333.00;;;;4954503;28;20205;-69
2022/05/31 10:31:32;;;;;;;0.00;0.00;;;21.30;79.90;226.50;231333.00;;;;4968727;28;20194;-67
2022/05/31 10:34:04;;;;;;;0.00;0.00;;;21.40;79.70;226.50;231333.00;;;;4953292;28;20229;-67
2022/05/31 10:36:48;;;;;;;0.00;0.00;;;21.90;79.20;226.50;231333.00;;;;4953238;28;20661;-68
2022/05/31 10:39:23;;;;;;;0.00;0.00;;;22.30;78.10;226.50;231333.00;;;;4952790;28;20206;-67
2022/05/31 10:41:57;;;;;;;0.00;0.00;;;22.20;75.70;226.50;231333.00;;;;4952958;28;20562;-67
2022/05/31 10:44:33;;;;;;;0.00;0.00;;;22.00;77.50;226.50;231333.00;;;;4947068;29;20240;-69
2022/05/31 10:47:11;;;;;;;0.00;0.00;;;21.80;76.90;226.50;231333.00;;;;4947158;28;20653;-67
2022/05/31 10:49:42;;;;;;;0.00;0.00;;;21.70;77.70;226.50;231333.00;;;;4933694;29;20597;-67
2022/05/31 10:52:23;;;;;;;0.00;0.00;;;21.90;77.90;226.50;231333.00;;;;4933612;29;20206;-68
2022/05/31 10:55:23;;;;;;;0.00;0.00;;;22.10;77.50;226.50;231333.00;;;;4933998;29;20226;-67
2022/05/31 10:58:27;;;;;;;0.00;0.00;;;22.20;76.30;226.50;231333.00;;;;4933476;29;20483;-67
2022/05/31 11:01:06;;;;;;;0.00;0.00;;;22.30;75.70;226.50;231333.00;;;;4933800;29;20619;-67
2022/05/31 11:03:47;;;;;;;0.00;0.00;;;22.40;74.40;226.50;231333.00;;;;4935107;29;20301;-67
2022/05/31 11:06:36;;;;;;;0.00;0.00;;;22.30;75.00;226.50;231333.00;;;;4937536;29;20230;-67
2022/05/31 11:12:33;;;;;;;0.00;0.00;;;22.10;77.10;226.50;231333.00;;;;4937659;29;20677;-67
2022/05/31 11:15:23;;;;;;;0.00;0.00;;;22.20;76.30;226.50;231333.00;;;;4937572;29;20831;-68
2022/05/31 11:18:53;;;;;;;0.00;0.00;;;22.40;75.60;226.50;231333.00;;;;4937156;29;20194;-68
2022/05/31 11:21:42;;;;;;;0.00;0.00;;;22.10;75.40;226.50;231333.00;;;;4897488;29;20204;-67
2022/05/31 11:24:40;;;;;;;0.00;0.00;;;22.60;76.70;226.50;231333.00;;;;4905057;29;20266;-67
2022/05/31 11:27:34;;;;;;;0.00;0.00;;;23.10;76.60;226.50;231333.00;;;;4948614;28;20212;-67
2022/05/31 11:30:21;;;;;;;0.00;0.00;;;23.00;74.80;226.50;231333.00;;;;4956338;28;20194;-67
2022/05/31 11:33:11;;;;;;;0.00;0.00;;;22.90;73.70;226.50;231333.00;;;;4971340;28;20232;-67
2022/05/31 11:35:59;;;;;;;0.00;0.00;;;22.70;74.80;226.50;231333.00;;;;4956697;28;20193;-67
2022/05/31 11:38:49;;;;;;;0.00;0.00;;;22.50;74.80;226.50;231333.00;;;;4956188;28;20540;-67
2022/05/31 11:41:33;;;;;;;0.00;0.00;;;22.60;75.30;226.50;231333.00;;;;4954318;28;20202;-67
2022/05/31 11:45:01;;;;;;;0.00;0.00;;;22.90;75.20;226.50;231333.00;;;;4946869;29;20237;-67
2022/05/31 11:47:58;;;;;;;0.00;0.00;;;23.20;75.40;226.50;231333.00;;;;4950017;28;20213;-67
2022/05/31 11:50:38;;;;;;;0.00;0.00;;;23.50;75.00;226.50;231333.00;;;;4954404;28;20205;-68
2022/05/31 11:53:37;;;;;;;0.00;0.00;;;23.70;73.60;226.50;231333.00;;;;4955755;28;20202;-67
2022/05/31 11:56:15;;;;;;;0.00;0.00;;;23.30;74.50;226.50;231333.00;;;;4956367;29;20282;-67